Terminal Aerodrome Forecast
Issued by NWS Sioux Falls, SD

Home | Current Version | Previous Version | Graphics & Text | Print | Product List | Glossary Off
Versions: 1 2 3 4 5 6 7 8 9 10 11 12 13 14 15

272
FTUS43 KFSD 281543 AAB
TAFFSD
TAF AMD
KFSD 281543Z 2816/2912 02005KT P6SM BKN015
     FM281800 02008KT P6SM SCT035 BKN100
     FM290200 05007KT P6SM SCT100 BKN200=

USA.gov is the U.S. government's official web portal to all federal, state and local government web resources and services.